sensor_id;sensor_type;location;lat;lon;timestamp;pressure;altitude;pressure_sealevel;temperature;humidity
35224;BME280;21367;51.930;8.112;2023-02-18T00:03:42;101496.44;;;8.36;100.00
35224;BME280;21367;51.930;8.112;2023-02-18T00:08:50;101491.91;;;8.58;100.00
35224;BME280;21367;51.930;8.112;2023-02-18T00:13:56;101493.38;;;8.55;100.00
35224;BME280;21367;51.930;8.112;2023-02-18T00:19:02;101487.59;;;8.44;100.00
35224;BME280;21367;51.930;8.112;2023-02-18T00:24:12;101486.38;;;8.66;100.00
35224;BME280;21367;51.930;8.112;2023-02-18T00:29:17;101476.91;;;8.65;100.00
35224;BME280;21367;51.930;8.112;2023-02-18T00:34:22;101471.97;;;9.09;100.00
35224;BME280;21367;51.930;8.112;2023-02-18T00:39:28;101479.53;;;8.79;100.00
35224;BME280;21367;51.930;8.112;2023-02-18T00:44:32;101477.53;;;8.89;100.00
35224;BME280;21367;51.930;8.112;2023-02-18T00:49:36;101469.28;;;9.08;100.00
35224;BME280;21367;51.930;8.112;2023-02-18T00:54:43;101464.09;;;8.93;100.00
35224;BME280;21367;51.930;8.112;2023-02-18T00:59:47;101472.72;;;9.08;100.00
35224;BME280;21367;51.930;8.112;2023-02-18T01:04:50;101460.75;;;9.22;100.00
35224;BME280;21367;51.930;8.112;2023-02-18T01:09:57;101452.50;;;9.13;100.00
35224;BME280;21367;51.930;8.112;2023-02-18T01:15:02;101453.28;;;9.12;100.00
35224;BME280;21367;51.930;8.112;2023-02-18T01:20:07;101450.22;;;8.89;100.00
35224;BME280;21367;51.930;8.112;2023-02-18T01:25:14;101459.78;;;8.92;100.00
35224;BME280;21367;51.930;8.112;2023-02-18T01:30:18;101443.94;;;9.12;100.00
35224;BME280;21367;51.930;8.112;2023-02-18T01:35:22;101446.34;;;8.96;100.00
35224;BME280;21367;51.930;8.112;2023-02-18T01:40:31;101433.53;;;8.96;100.00
35224;BME280;21367;51.930;8.112;2023-02-18T01:45:48;101433.03;;;9.01;100.00
35224;BME280;21367;51.930;8.112;2023-02-18T01:50:56;101433.13;;;9.03;100.00
35224;BME280;21367;51.930;8.112;2023-02-18T01:56:09;101426.88;;;9.13;100.00
35224;BME280;21367;51.930;8.112;2023-02-18T02:01:13;101417.81;;;9.04;100.00
35224;BME280;21367;51.930;8.112;2023-02-18T02:06:19;101411.56;;;9.14;100.00
35224;BME280;21367;51.930;8.112;2023-02-18T02:11:37;101396.97;;;9.13;100.00
35224;BME280;21367;51.930;8.112;2023-02-18T02:16:51;101393.34;;;9.10;100.00
35224;BME280;21367;51.930;8.112;2023-02-18T02:22:13;101382.91;;;9.36;100.00
35224;BME280;21367;51.930;8.112;2023-02-18T02:27:34;101375.75;;;9.16;100.00
35224;BME280;21367;51.930;8.112;2023-02-18T02:38:54;101353.28;;;9.41;100.00
35224;BME280;21367;51.930;8.112;2023-02-18T02:44:07;101343.09;;;9.43;100.00
35224;BME280;21367;51.930;8.112;2023-02-18T02:49:22;101340.88;;;9.49;100.00
35224;BME280;21367;51.930;8.112;2023-02-18T02:54:31;101322.56;;;9.43;100.00
35224;BME280;21367;51.930;8.112;2023-02-18T02:59:38;101319.84;;;9.40;100.00
35224;BME280;21367;51.930;8.112;2023-02-18T03:04:53;101306.22;;;9.41;100.00
35224;BME280;21367;51.930;8.112;2023-02-18T03:10:15;101322.78;;;9.31;100.00
35224;BME280;21367;51.930;8.112;2023-02-18T03:15:23;101325.53;;;9.19;100.00
35224;BME280;21367;51.930;8.112;2023-02-18T03:20:33;101295.16;;;9.42;100.00
35224;BME280;21367;51.930;8.112;2023-02-18T03:25:41;101291.03;;;9.29;100.00
35224;BME280;21367;51.930;8.112;2023-02-18T03:30:48;101287.41;;;9.40;100.00
35224;BME280;21367;51.930;8.112;2023-02-18T03:35:54;101265.97;;;9.40;100.00
35224;BME280;21367;51.930;8.112;2023-02-18T03:41:03;101260.72;;;9.53;100.00
35224;BME280;21367;51.930;8.112;2023-02-18T03:46:09;101257.34;;;9.54;100.00
35224;BME280;21367;51.930;8.112;2023-02-18T03:51:13;101262.06;;;9.46;100.00
35224;BME280;21367;51.930;8.112;2023-02-18T03:56:20;101245.88;;;9.47;100.00
35224;BME280;21367;51.930;8.112;2023-02-18T04:01:24;101250.88;;;9.61;100.00
35224;BME280;21367;51.930;8.112;2023-02-18T04:06:28;101245.75;;;9.61;100.00
35224;BME280;21367;51.930;8.112;2023-02-18T04:11:35;101240.72;;;9.62;100.00
35224;BME280;21367;51.930;8.112;2023-02-18T04:16:39;101232.56;;;9.55;100.00
35224;BME280;21367;51.930;8.112;2023-02-18T04:21:43;101229.47;;;9.60;100.00
35224;BME280;21367;51.930;8.112;2023-02-18T04:26:51;101223.06;;;9.68;100.00
35224;BME280;21367;51.930;8.112;2023-02-18T04:31:55;101206.38;;;9.60;100.00
35224;BME280;21367;51.930;8.112;2023-02-18T04:36:59;101212.16;;;9.72;100.00
35224;BME280;21367;51.930;8.112;2023-02-18T04:42:05;101196.03;;;9.75;100.00
35224;BME280;21367;51.930;8.112;2023-02-18T04:47:10;101185.03;;;9.78;100.00
35224;BME280;21367;51.930;8.112;2023-02-18T04:52:14;101178.16;;;9.77;100.00
35224;BME280;21367;51.930;8.112;2023-02-18T04:57:20;101178.84;;;9.74;100.00
35224;BME280;21367;51.930;8.112;2023-02-18T05:02:26;101188.31;;;9.59;100.00
35224;BME280;21367;51.930;8.112;2023-02-18T05:07:30;101183.75;;;9.69;100.00
35224;BME280;21367;51.930;8.112;2023-02-18T05:12:36;101171.00;;;9.71;100.00
35224;BME280;21367;51.930;8.112;2023-02-18T05:17:40;101162.69;;;9.75;100.00
35224;BME280;21367;51.930;8.112;2023-02-18T05:22:43;101154.50;;;9.82;100.00
35224;BME280;21367;51.930;8.112;2023-02-18T05:27:50;101152.63;;;9.80;100.00
35224;BME280;21367;51.930;8.112;2023-02-18T05:32:53;101128.00;;;9.83;100.00
35224;BME280;21367;51.930;8.112;2023-02-18T05:37:58;101115.56;;;9.91;100.00
35224;BME280;21367;51.930;8.112;2023-02-18T05:43:04;101104.53;;;9.76;100.00
35224;BME280;21367;51.930;8.112;2023-02-18T05:48:08;101099.56;;;9.62;100.00
35224;BME280;21367;51.930;8.112;2023-02-18T05:53:11;101086.72;;;9.79;100.00
35224;BME280;21367;51.930;8.112;2023-02-18T05:58:18;101089.44;;;9.82;100.00
35224;BME280;21367;51.930;8.112;2023-02-18T06:03:21;101089.03;;;9.74;100.00
35224;BME280;21367;51.930;8.112;2023-02-18T06:08:25;101073.09;;;9.63;100.00
35224;BME280;21367;51.930;8.112;2023-02-18T06:13:32;101068.78;;;9.62;100.00
35224;BME280;21367;51.930;8.112;2023-02-18T06:18:36;101065.69;;;9.69;100.00
35224;BME280;21367;51.930;8.112;2023-02-18T06:23:40;101059.69;;;9.69;100.00
35224;BME280;21367;51.930;8.112;2023-02-18T06:28:46;101076.16;;;9.56;100.00
35224;BME280;21367;51.930;8.112;2023-02-18T06:33:50;101069.31;;;9.73;100.00
35224;BME280;21367;51.930;8.112;2023-02-18T06:38:54;101075.25;;;9.72;100.00
35224;BME280;21367;51.930;8.112;2023-02-18T06:44:01;101054.09;;;9.60;100.00
35224;BME280;21367;51.930;8.112;2023-02-18T06:49:05;101054.25;;;9.63;100.00
35224;BME280;21367;51.930;8.112;2023-02-18T06:54:08;101061.94;;;9.63;100.00
35224;BME280;21367;51.930;8.112;2023-02-18T06:59:15;101053.44;;;9.64;100.00
35224;BME280;21367;51.930;8.112;2023-02-18T07:04:19;101051.34;;;9.73;100.00
35224;BME280;21367;51.930;8.112;2023-02-18T07:09:22;101044.91;;;9.65;100.00
35224;BME280;21367;51.930;8.112;2023-02-18T07:14:29;101039.22;;;9.70;100.00
35224;BME280;21367;51.930;8.112;2023-02-18T07:19:33;101039.84;;;9.83;100.00
35224;BME280;21367;51.930;8.112;2023-02-18T07:24:37;101041.22;;;9.76;100.00
35224;BME280;21367;51.930;8.112;2023-02-18T07:29:43;101027.88;;;9.83;100.00
35224;BME280;21367;51.930;8.112;2023-02-18T07:34:47;101040.41;;;9.77;100.00
35224;BME280;21367;51.930;8.112;2023-02-18T07:39:51;101036.66;;;9.70;100.00
35224;BME280;21367;51.930;8.112;2023-02-18T07:44:57;101032.09;;;9.65;100.00
35224;BME280;21367;51.930;8.112;2023-02-18T07:50:01;101030.00;;;9.74;100.00
35224;BME280;21367;51.930;8.112;2023-02-18T07:55:06;101029.53;;;9.81;100.00
35224;BME280;21367;51.930;8.112;2023-02-18T08:00:13;101020.28;;;9.85;100.00
35224;BME280;21367;51.930;8.112;2023-02-18T08:05:18;101029.84;;;9.71;100.00
35224;BME280;21367;51.930;8.112;2023-02-18T08:10:22;101022.44;;;9.77;100.00
35224;BME280;21367;51.930;8.112;2023-02-18T08:15:29;101033.84;;;9.82;100.00
35224;BME280;21367;51.930;8.112;2023-02-18T08:20:35;101027.56;;;9.93;100.00
35224;BME280;21367;51.930;8.112;2023-02-18T08:25:39;101020.66;;;9.92;100.00
35224;BME280;21367;51.930;8.112;2023-02-18T08:30:46;101020.19;;;9.83;100.00
35224;BME280;21367;51.930;8.112;2023-02-18T08:35:52;101036.28;;;9.97;100.00
35224;BME280;21367;51.930;8.112;2023-02-18T08:41:01;101027.88;;;9.83;100.00
35224;BME280;21367;51.930;8.112;2023-02-18T08:46:07;101046.31;;;9.92;100.00
35224;BME280;21367;51.930;8.112;2023-02-18T08:51:13;101037.69;;;9.90;100.00
35224;BME280;21367;51.930;8.112;2023-02-18T08:56:17;101020.19;;;9.83;100.00
35224;BME280;21367;51.930;8.112;2023-02-18T09:01:24;101004.88;;;9.85;100.00
35224;BME280;21367;51.930;8.112;2023-02-18T09:06:27;101000.47;;;9.82;100.00
35224;BME280;21367;51.930;8.112;2023-02-18T09:11:31;101006.72;;;9.87;100.00
35224;BME280;21367;51.930;8.112;2023-02-18T09:16:37;101001.19;;;9.80;100.00
35224;BME280;21367;51.930;8.112;2023-02-18T09:21:44;101018.88;;;9.57;100.00
35224;BME280;21367;51.930;8.112;2023-02-18T09:26:47;101020.38;;;9.70;100.00
35224;BME280;21367;51.930;8.112;2023-02-18T09:31:54;101019.56;;;9.71;100.00
35224;BME280;21367;51.930;8.112;2023-02-18T09:36:57;101010.94;;;9.87;100.00
35224;BME280;21367;51.930;8.112;2023-02-18T09:42:03;100993.75;;;9.68;100.00
35224;BME280;21367;51.930;8.112;2023-02-18T09:47:13;101007.84;;;9.76;100.00
35224;BME280;21367;51.930;8.112;2023-02-18T09:52:20;100988.66;;;9.86;100.00
35224;BME280;21367;51.930;8.112;2023-02-18T09:57:27;100998.63;;;9.80;100.00
35224;BME280;21367;51.930;8.112;2023-02-18T10:02:36;100992.00;;;9.67;100.00
35224;BME280;21367;51.930;8.112;2023-02-18T10:07:43;100991.34;;;9.71;100.00
35224;BME280;21367;51.930;8.112;2023-02-18T10:12:48;101009.91;;;9.65;100.00
35224;BME280;21367;51.930;8.112;2023-02-18T10:17:56;101009.91;;;9.49;100.00
35224;BME280;21367;51.930;8.112;2023-02-18T10:23:02;101008.63;;;9.57;100.00
35224;BME280;21367;51.930;8.112;2023-02-18T10:28:07;101017.88;;;9.37;100.00
35224;BME280;21367;51.930;8.112;2023-02-18T10:33:26;101021.44;;;9.57;100.00
35224;BME280;21367;51.930;8.112;2023-02-18T10:38:40;101028.84;;;9.35;100.00
35224;BME280;21367;51.930;8.112;2023-02-18T10:43:52;101027.53;;;9.43;100.00
35224;BME280;21367;51.930;8.112;2023-02-18T10:49:20;101026.13;;;9.32;100.00
35224;BME280;21367;51.930;8.112;2023-02-18T10:54:47;101027.56;;;9.59;100.00
35224;BME280;21367;51.930;8.112;2023-02-18T10:59:58;101011.06;;;9.38;100.00
35224;BME280;21367;51.930;8.112;2023-02-18T11:05:16;101013.84;;;9.42;100.00
35224;BME280;21367;51.930;8.112;2023-02-18T11:10:23;101012.16;;;9.43;100.00
35224;BME280;21367;51.930;8.112;2023-02-18T11:15:28;101009.59;;;9.26;100.00
35224;BME280;21367;51.930;8.112;2023-02-18T11:20:36;101034.75;;;9.34;100.00
35224;BME280;21367;51.930;8.112;2023-02-18T11:25:41;101046.97;;;9.38;100.00
35224;BME280;21367;51.930;8.112;2023-02-18T11:30:57;101024.03;;;9.41;100.00
35224;BME280;21367;51.930;8.112;2023-02-18T11:36:16;101028.28;;;9.40;100.00
35224;BME280;21367;51.930;8.112;2023-02-18T11:41:28;101025.53;;;9.70;100.00
35224;BME280;21367;51.930;8.112;2023-02-18T11:46:33;101046.72;;;9.49;100.00
35224;BME280;21367;51.930;8.112;2023-02-18T11:51:39;101036.53;;;9.51;100.00
35224;BME280;21367;51.930;8.112;2023-02-18T11:56:43;101040.63;;;9.31;100.00
35224;BME280;21367;51.930;8.112;2023-02-18T12:02:01;101046.44;;;9.61;100.00
35224;BME280;21367;51.930;8.112;2023-02-18T12:07:14;101041.66;;;9.51;100.00
35224;BME280;21367;51.930;8.112;2023-02-18T12:12:24;101036.53;;;9.51;100.00
35224;BME280;21367;51.930;8.112;2023-02-18T12:17:45;101029.06;;;9.39;100.00
35224;BME280;21367;51.930;8.112;2023-02-18T12:22:58;101031.81;;;9.10;100.00
35224;BME280;21367;51.930;8.112;2023-02-18T12:28:22;101031.66;;;9.23;100.00
35224;BME280;21367;51.930;8.112;2023-02-18T12:33:35;101037.66;;;9.40;100.00
35224;BME280;21367;51.930;8.112;2023-02-18T12:39:13;101047.69;;;9.19;100.00
35224;BME280;21367;51.930;8.112;2023-02-18T12:44:38;101043.75;;;9.42;100.00
35224;BME280;21367;51.930;8.112;2023-02-18T12:50:08;101039.44;;;9.41;100.00
35224;BME280;21367;51.930;8.112;2023-02-18T12:55:45;101039.34;;;9.39;100.00
35224;BME280;21367;51.930;8.112;2023-02-18T13:01:14;101042.56;;;9.35;100.00
35224;BME280;21367;51.930;8.112;2023-02-18T13:06:37;101032.19;;;9.17;100.00
35224;BME280;21367;51.930;8.112;2023-02-18T13:11:54;101037.41;;;9.52;100.00
35224;BME280;21367;51.930;8.112;2023-02-18T13:17:01;101042.41;;;9.16;100.00
35224;BME280;21367;51.930;8.112;2023-02-18T13:22:06;101043.09;;;9.46;100.00
35224;BME280;21367;51.930;8.112;2023-02-18T13:27:21;101032.94;;;9.47;100.00
35224;BME280;21367;51.930;8.112;2023-02-18T13:32:30;101045.25;;;9.55;100.00
35224;BME280;21367;51.930;8.112;2023-02-18T13:37:47;101045.03;;;9.50;100.00
35224;BME280;21367;51.930;8.112;2023-02-18T13:43:17;101041.41;;;9.63;100.00
35224;BME280;21367;51.930;8.112;2023-02-18T13:48:25;101044.28;;;9.69;100.00
35224;BME280;21367;51.930;8.112;2023-02-18T13:53:31;101051.75;;;9.48;100.00
35224;BME280;21367;51.930;8.112;2023-02-18T13:58:54;101065.72;;;9.53;100.00
35224;BME280;21367;51.930;8.112;2023-02-18T14:04:31;101063.78;;;9.49;100.00
35224;BME280;21367;51.930;8.112;2023-02-18T14:09:44;101059.06;;;9.57;100.00
35224;BME280;21367;51.930;8.112;2023-02-18T14:14:48;101064.03;;;9.54;100.00
35224;BME280;21367;51.930;8.112;2023-02-18T14:19:53;101048.88;;;9.75;100.00
35224;BME280;21367;51.930;8.112;2023-02-18T14:25:12;101057.00;;;9.49;100.00
35224;BME280;21367;51.930;8.112;2023-02-18T14:30:24;101058.31;;;9.76;100.00
35224;BME280;21367;51.930;8.112;2023-02-18T14:35:34;101057.84;;;9.66;100.00
35224;BME280;21367;51.930;8.112;2023-02-18T14:40:57;101052.84;;;9.86;100.00
35224;BME280;21367;51.930;8.112;2023-02-18T14:46:19;101054.53;;;9.85;100.00
35224;BME280;21367;51.930;8.112;2023-02-18T14:51:31;101063.25;;;9.89;100.00
35224;BME280;21367;51.930;8.112;2023-02-18T14:56:47;101056.84;;;9.97;100.00
35224;BME280;21367;51.930;8.112;2023-02-18T15:01:55;101055.81;;;10.11;100.00
35224;BME280;21367;51.930;8.112;2023-02-18T15:07:01;101062.50;;;10.08;100.00
35224;BME280;21367;51.930;8.112;2023-02-18T15:12:08;101063.31;;;10.07;100.00
35224;BME280;21367;51.930;8.112;2023-02-18T15:17:18;101061.81;;;9.94;100.00
35224;BME280;21367;51.930;8.112;2023-02-18T15:22:24;101055.00;;;10.29;100.00
35224;BME280;21367;51.930;8.112;2023-02-18T15:27:33;101054.78;;;10.08;100.00
35224;BME280;21367;51.930;8.112;2023-02-18T15:32:44;101064.69;;;10.18;100.00
35224;BME280;21367;51.930;8.112;2023-02-18T15:37:52;101063.53;;;10.11;100.00
35224;BME280;21367;51.930;8.112;2023-02-18T15:43:00;101059.56;;;10.34;100.00
35224;BME280;21367;51.930;8.112;2023-02-18T15:48:12;101061.03;;;10.13;100.00
35224;BME280;21367;51.930;8.112;2023-02-18T15:53:24;101071.00;;;10.07;100.00
35224;BME280;21367;51.930;8.112;2023-02-18T15:58:32;101076.47;;;10.13;100.00
35224;BME280;21367;51.930;8.112;2023-02-18T16:03:44;101072.31;;;9.99;100.00
35224;BME280;21367;51.930;8.112;2023-02-18T16:08:54;101080.41;;;10.06;100.00
35224;BME280;21367;51.930;8.112;2023-02-18T16:14:03;101091.16;;;10.15;100.00
35224;BME280;21367;51.930;8.112;2023-02-18T16:19:22;101090.69;;;9.90;100.00
35224;BME280;21367;51.930;8.112;2023-02-18T16:24:28;101099.53;;;9.79;100.00
35224;BME280;21367;51.930;8.112;2023-02-18T16:29:40;101108.97;;;9.96;100.00
35224;BME280;21367;51.930;8.112;2023-02-18T16:34:44;101098.63;;;9.94;100.00
35224;BME280;21367;51.930;8.112;2023-02-18T16:39:49;101111.78;;;10.01;100.00
35224;BME280;21367;51.930;8.112;2023-02-18T16:44:58;101112.09;;;10.07;100.00
35224;BME280;21367;51.930;8.112;2023-02-18T16:50:01;101111.00;;;9.85;100.00
35224;BME280;21367;51.930;8.112;2023-02-18T16:55:11;101106.88;;;10.05;100.00
35224;BME280;21367;51.930;8.112;2023-02-18T17:00:24;101114.53;;;9.87;100.00
35224;BME280;21367;51.930;8.112;2023-02-18T17:05:31;101118.78;;;9.87;100.00
35224;BME280;21367;51.930;8.112;2023-02-18T17:10:40;101128.38;;;10.07;100.00
35224;BME280;21367;51.930;8.112;2023-02-18T17:20:59;101134.28;;;9.88;100.00
35224;BME280;21367;51.930;8.112;2023-02-18T17:26:04;101131.69;;;9.88;100.00
35224;BME280;21367;51.930;8.112;2023-02-18T17:31:16;101139.16;;;9.84;100.00
35224;BME280;21367;51.930;8.112;2023-02-18T17:36:25;101154.72;;;10.03;100.00
35224;BME280;21367;51.930;8.112;2023-02-18T17:41:29;101150.00;;;9.78;100.00
35224;BME280;21367;51.930;8.112;2023-02-18T17:46:33;101155.38;;;9.83;100.00
35224;BME280;21367;51.930;8.112;2023-02-18T17:51:39;101146.06;;;9.85;100.00
35224;BME280;21367;51.930;8.112;2023-02-18T17:56:43;101136.69;;;9.85;100.00
35224;BME280;21367;51.930;8.112;2023-02-18T18:01:46;101160.75;;;10.04;100.00
35224;BME280;21367;51.930;8.112;2023-02-18T18:06:53;101154.63;;;10.02;100.00
35224;BME280;21367;51.930;8.112;2023-02-18T18:11:57;101171.19;;;9.90;100.00
35224;BME280;21367;51.930;8.112;2023-02-18T18:17:00;101170.50;;;10.11;100.00
35224;BME280;21367;51.930;8.112;2023-02-18T18:22:07;101165.72;;;9.84;100.00
35224;BME280;21367;51.930;8.112;2023-02-18T18:27:11;101171.03;;;9.87;100.00
35224;BME280;21367;51.930;8.112;2023-02-18T18:32:14;101169.56;;;9.92;100.00
35224;BME280;21367;51.930;8.112;2023-02-18T18:37:20;101165.88;;;9.87;100.00
35224;BME280;21367;51.930;8.112;2023-02-18T18:42:24;101181.63;;;9.93;100.00
35224;BME280;21367;51.930;8.112;2023-02-18T18:47:28;101175.50;;;9.75;100.00
35224;BME280;21367;51.930;8.112;2023-02-18T18:52:35;101182.63;;;9.81;100.00
35224;BME280;21367;51.930;8.112;2023-02-18T18:57:39;101183.28;;;9.77;100.00
35224;BME280;21367;51.930;8.112;2023-02-18T19:02:43;101173.00;;;9.77;100.00
35224;BME280;21367;51.930;8.112;2023-02-18T19:07:50;101180.38;;;9.70;100.00
35224;BME280;21367;51.930;8.112;2023-02-18T19:12:54;101176.78;;;9.67;100.00
35224;BME280;21367;51.930;8.112;2023-02-18T19:17:58;101169.88;;;9.66;100.00
35224;BME280;21367;51.930;8.112;2023-02-18T19:23:04;101171.53;;;9.49;100.00
35224;BME280;21367;51.930;8.112;2023-02-18T19:28:09;101177.91;;;9.72;100.00
35224;BME280;21367;51.930;8.112;2023-02-18T19:33:13;101172.81;;;9.41;100.00
35224;BME280;21367;51.930;8.112;2023-02-18T19:38:20;101175.25;;;9.54;100.00
35224;BME280;21367;51.930;8.112;2023-02-18T19:43:25;101174.75;;;9.61;100.00
35224;BME280;21367;51.930;8.112;2023-02-18T19:48:29;101161.38;;;9.67;100.00
35224;BME280;21367;51.930;8.112;2023-02-18T19:53:36;101150.94;;;9.64;100.00
35224;BME280;21367;51.930;8.112;2023-02-18T19:58:40;101167.63;;;9.56;100.00
35224;BME280;21367;51.930;8.112;2023-02-18T20:03:44;101167.56;;;9.70;100.00
35224;BME280;21367;51.930;8.112;2023-02-18T20:08:50;101155.25;;;9.32;100.00
35224;BME280;21367;51.930;8.112;2023-02-18T20:13:54;101150.28;;;9.35;100.00
35224;BME280;21367;51.930;8.112;2023-02-18T20:18:57;101148.31;;;9.15;100.00
35224;BME280;21367;51.930;8.112;2023-02-18T20:24:05;101142.09;;;9.42;100.00
35224;BME280;21367;51.930;8.112;2023-02-18T20:29:09;101135.91;;;9.22;100.00
35224;BME280;21367;51.930;8.112;2023-02-18T20:34:13;101136.19;;;9.76;100.00
35224;BME280;21367;51.930;8.112;2023-02-18T20:39:20;101132.28;;;9.50;100.00
35224;BME280;21367;51.930;8.112;2023-02-18T20:44:24;101128.56;;;9.45;100.00
35224;BME280;21367;51.930;8.112;2023-02-18T20:49:28;101124.47;;;9.48;100.00
35224;BME280;21367;51.930;8.112;2023-02-18T20:54:36;101134.41;;;9.59;100.00
35224;BME280;21367;51.930;8.112;2023-02-18T20:59:39;101130.09;;;9.74;100.00
35224;BME280;21367;51.930;8.112;2023-02-18T21:04:43;101122.41;;;9.90;100.00
35224;BME280;21367;51.930;8.112;2023-02-18T21:09:50;101116.94;;;9.52;100.00
35224;BME280;21367;51.930;8.112;2023-02-18T21:14:53;101127.28;;;9.86;100.00
35224;BME280;21367;51.930;8.112;2023-02-18T21:19:57;101120.81;;;9.60;100.00
35224;BME280;21367;51.930;8.112;2023-02-18T21:25:04;101118.97;;;9.57;100.00
35224;BME280;21367;51.930;8.112;2023-02-18T21:30:09;101117.03;;;9.53;100.00
35224;BME280;21367;51.930;8.112;2023-02-18T21:35:13;101103.31;;;9.53;100.00
35224;BME280;21367;51.930;8.112;2023-02-18T21:40:19;101096.09;;;9.78;100.00
35224;BME280;21367;51.930;8.112;2023-02-18T21:45:23;101094.81;;;9.70;100.00
35224;BME280;21367;51.930;8.112;2023-02-18T21:50:27;101084.94;;;9.45;100.00
35224;BME280;21367;51.930;8.112;2023-02-18T21:55:33;101094.72;;;9.36;100.00
35224;BME280;21367;51.930;8.112;2023-02-18T22:00:37;101084.78;;;9.42;100.00
35224;BME280;21367;51.930;8.112;2023-02-18T22:05:41;101087.19;;;9.39;100.00
35224;BME280;21367;51.930;8.112;2023-02-18T22:10:48;101085.50;;;9.39;100.00
35224;BME280;21367;51.930;8.112;2023-02-18T22:15:54;101085.50;;;9.23;100.00
35224;BME280;21367;51.930;8.112;2023-02-18T22:20:58;101083.91;;;9.58;100.00
35224;BME280;21367;51.930;8.112;2023-02-18T22:26:07;101067.47;;;9.54;100.00
35224;BME280;21367;51.930;8.112;2023-02-18T22:31:11;101061.97;;;9.46;100.00
35224;BME280;21367;51.930;8.112;2023-02-18T22:36:16;101068.91;;;9.49;100.00
35224;BME280;21367;51.930;8.112;2023-02-18T22:41:24;101060.00;;;9.59;100.00
35224;BME280;21367;51.930;8.112;2023-02-18T22:46:29;101057.00;;;9.49;100.00
35224;BME280;21367;51.930;8.112;2023-02-18T22:51:35;101045.66;;;9.13;100.00
35224;BME280;21367;51.930;8.112;2023-02-18T22:56:42;101046.81;;;9.35;100.00
35224;BME280;21367;51.930;8.112;2023-02-18T23:01:47;101037.91;;;9.28;100.00
35224;BME280;21367;51.930;8.112;2023-02-18T23:06:52;101028.66;;;8.99;100.00
35224;BME280;21367;51.930;8.112;2023-02-18T23:11:58;100984.53;;;9.37;100.00
35224;BME280;21367;51.930;8.112;2023-02-18T23:17:02;101001.13;;;9.27;100.00
35224;BME280;21367;51.930;8.112;2023-02-18T23:22:19;101009.66;;;9.12;100.00
35224;BME280;21367;51.930;8.112;2023-02-18T23:27:26;101004.88;;;9.18;100.00
35224;BME280;21367;51.930;8.112;2023-02-18T23:32:30;101000.81;;;9.21;100.00
35224;BME280;21367;51.930;8.112;2023-02-18T23:37:33;100991.00;;;9.31;100.00
35224;BME280;21367;51.930;8.112;2023-02-18T23:42:54;100986.31;;;9.22;100.00
35224;BME280;21367;51.930;8.112;2023-02-18T23:47:58;100971.78;;;9.22;100.00
35224;BME280;21367;51.930;8.112;2023-02-18T23:53:02;100983.25;;;9.29;100.00
35224;BME280;21367;51.930;8.112;2023-02-18T23:58:08;100983.31;;;9.31;100.00
